sensor_id;sensor_type;location;lat;lon;timestamp;P1;durP1;ratioP1;P2;durP2;ratioP2
75847;SDS011;65750;47.540;19.090;2023-02-19T00:00:58;4.22;;;2.58;;
75847;SDS011;65750;47.540;19.090;2023-02-19T00:03:28;4.07;;;2.40;;
75847;SDS011;65750;47.540;19.090;2023-02-19T00:05:55;4.22;;;2.30;;
75847;SDS011;65750;47.540;19.090;2023-02-19T00:08:22;4.10;;;2.35;;
75847;SDS011;65750;47.540;19.090;2023-02-19T00:10:50;4.20;;;2.10;;
75847;SDS011;65750;47.540;19.090;2023-02-19T00:13:19;4.62;;;2.35;;
75847;SDS011;65750;47.540;19.090;2023-02-19T00:15:46;3.92;;;2.35;;
75847;SDS011;65750;47.540;19.090;2023-02-19T00:18:13;3.25;;;2.17;;
75847;SDS011;65750;47.540;19.090;2023-02-19T00:20:40;3.37;;;2.05;;
75847;SDS011;65750;47.540;19.090;2023-02-19T00:23:07;4.10;;;2.03;;
75847;SDS011;65750;47.540;19.090;2023-02-19T00:25:35;3.90;;;2.00;;
75847;SDS011;65750;47.540;19.090;2023-02-19T00:28:02;4.78;;;2.83;;
75847;SDS011;65750;47.540;19.090;2023-02-19T00:30:31;3.83;;;1.90;;
75847;SDS011;65750;47.540;19.090;2023-02-19T00:32:58;3.87;;;2.17;;
75847;SDS011;65750;47.540;19.090;2023-02-19T00:35:25;4.10;;;2.07;;
75847;SDS011;65750;47.540;19.090;2023-02-19T00:37:53;3.83;;;2.00;;
75847;SDS011;65750;47.540;19.090;2023-02-19T00:40:20;3.92;;;2.28;;
75847;SDS011;65750;47.540;19.090;2023-02-19T00:42:51;3.60;;;2.08;;
75847;SDS011;65750;47.540;19.090;2023-02-19T00:45:19;2.97;;;1.90;;
75847;SDS011;65750;47.540;19.090;2023-02-19T00:47:47;4.27;;;1.90;;
75847;SDS011;65750;47.540;19.090;2023-02-19T00:50:14;3.78;;;2.20;;
75847;SDS011;65750;47.540;19.090;2023-02-19T00:52:41;3.10;;;1.90;;
75847;SDS011;65750;47.540;19.090;2023-02-19T00:55:09;3.58;;;1.87;;
75847;SDS011;65750;47.540;19.090;2023-02-19T00:57:37;3.53;;;1.90;;
75847;SDS011;65750;47.540;19.090;2023-02-19T01:00:04;3.50;;;1.70;;
75847;SDS011;65750;47.540;19.090;2023-02-19T01:02:32;3.65;;;1.90;;
75847;SDS011;65750;47.540;19.090;2023-02-19T01:05:00;3.30;;;1.67;;
75847;SDS011;65750;47.540;19.090;2023-02-19T01:07:27;2.85;;;1.77;;
75847;SDS011;65750;47.540;19.090;2023-02-19T01:09:55;3.50;;;2.00;;
75847;SDS011;65750;47.540;19.090;2023-02-19T01:12:22;2.60;;;1.57;;
75847;SDS011;65750;47.540;19.090;2023-02-19T01:14:50;3.35;;;1.85;;
75847;SDS011;65750;47.540;19.090;2023-02-19T01:17:18;3.50;;;1.90;;
75847;SDS011;65750;47.540;19.090;2023-02-19T01:19:45;3.37;;;1.90;;
75847;SDS011;65750;47.540;19.090;2023-02-19T01:22:13;3.05;;;1.87;;
75847;SDS011;65750;47.540;19.090;2023-02-19T01:24:41;3.40;;;1.80;;
75847;SDS011;65750;47.540;19.090;2023-02-19T01:27:08;3.05;;;1.65;;
75847;SDS011;65750;47.540;19.090;2023-02-19T01:29:35;2.97;;;1.62;;
75847;SDS011;65750;47.540;19.090;2023-02-19T01:32:03;2.92;;;1.70;;
75847;SDS011;65750;47.540;19.090;2023-02-19T01:34:30;3.05;;;1.80;;
75847;SDS011;65750;47.540;19.090;2023-02-19T01:36:58;3.30;;;1.97;;
75847;SDS011;65750;47.540;19.090;2023-02-19T01:39:27;3.05;;;1.70;;
75847;SDS011;65750;47.540;19.090;2023-02-19T01:41:54;3.65;;;1.50;;
75847;SDS011;65750;47.540;19.090;2023-02-19T01:47:39;3.47;;;1.70;;
75847;SDS011;65750;47.540;19.090;2023-02-19T01:50:06;2.53;;;1.17;;
75847;SDS011;65750;47.540;19.090;2023-02-19T01:52:34;2.47;;;1.30;;
75847;SDS011;65750;47.540;19.090;2023-02-19T01:55:04;4.72;;;1.45;;
75847;SDS011;65750;47.540;19.090;2023-02-19T01:57:34;5.22;;;1.70;;
75847;SDS011;65750;47.540;19.090;2023-02-19T02:00:05;3.20;;;1.60;;
75847;SDS011;65750;47.540;19.090;2023-02-19T02:02:38;2.30;;;1.23;;
75847;SDS011;65750;47.540;19.090;2023-02-19T02:05:06;3.72;;;1.60;;
75847;SDS011;65750;47.540;19.090;2023-02-19T02:07:36;3.97;;;2.00;;
75847;SDS011;65750;47.540;19.090;2023-02-19T02:10:22;2.65;;;1.50;;
75847;SDS011;65750;47.540;19.090;2023-02-19T02:12:50;3.97;;;1.87;;
75847;SDS011;65750;47.540;19.090;2023-02-19T02:15:18;2.90;;;1.50;;
75847;SDS011;65750;47.540;19.090;2023-02-19T02:17:49;3.05;;;1.50;;
75847;SDS011;65750;47.540;19.090;2023-02-19T02:20:27;2.58;;;1.33;;
75847;SDS011;65750;47.540;19.090;2023-02-19T02:22:59;2.60;;;1.20;;
75847;SDS011;65750;47.540;19.090;2023-02-19T02:25:42;2.47;;;1.37;;
75847;SDS011;65750;47.540;19.090;2023-02-19T02:28:27;2.63;;;1.50;;
75847;SDS011;65750;47.540;19.090;2023-02-19T02:31:07;2.42;;;1.40;;
75847;SDS011;65750;47.540;19.090;2023-02-19T02:33:36;2.70;;;1.50;;
75847;SDS011;65750;47.540;19.090;2023-02-19T02:36:08;2.58;;;1.30;;
75847;SDS011;65750;47.540;19.090;2023-02-19T02:38:39;2.83;;;1.30;;
75847;SDS011;65750;47.540;19.090;2023-02-19T02:41:08;3.00;;;1.43;;
75847;SDS011;65750;47.540;19.090;2023-02-19T02:43:35;2.95;;;1.40;;
75847;SDS011;65750;47.540;19.090;2023-02-19T02:46:02;2.42;;;1.40;;
75847;SDS011;65750;47.540;19.090;2023-02-19T02:48:33;2.95;;;1.12;;
75847;SDS011;65750;47.540;19.090;2023-02-19T02:51:03;2.65;;;1.30;;
75847;SDS011;65750;47.540;19.090;2023-02-19T02:53:34;2.30;;;1.20;;
75847;SDS011;65750;47.540;19.090;2023-02-19T02:56:22;2.60;;;1.15;;
75847;SDS011;65750;47.540;19.090;2023-02-19T02:58:50;2.40;;;1.25;;
75847;SDS011;65750;47.540;19.090;2023-02-19T03:01:18;2.87;;;1.30;;
75847;SDS011;65750;47.540;19.090;2023-02-19T03:04:09;2.42;;;1.30;;
75847;SDS011;65750;47.540;19.090;2023-02-19T03:06:39;2.30;;;1.17;;
75847;SDS011;65750;47.540;19.090;2023-02-19T03:09:09;2.40;;;1.30;;
75847;SDS011;65750;47.540;19.090;2023-02-19T03:11:39;2.90;;;1.50;;
75847;SDS011;65750;47.540;19.090;2023-02-19T03:14:26;2.05;;;1.12;;
75847;SDS011;65750;47.540;19.090;2023-02-19T03:17:15;2.80;;;1.30;;
75847;SDS011;65750;47.540;19.090;2023-02-19T03:20:20;2.33;;;1.23;;
75847;SDS011;65750;47.540;19.090;2023-02-19T03:22:50;2.47;;;1.05;;
75847;SDS011;65750;47.540;19.090;2023-02-19T03:25:20;2.62;;;1.40;;
75847;SDS011;65750;47.540;19.090;2023-02-19T03:28:07;2.75;;;1.40;;
75847;SDS011;65750;47.540;19.090;2023-02-19T03:30:38;2.42;;;1.30;;
75847;SDS011;65750;47.540;19.090;2023-02-19T03:33:07;2.37;;;1.20;;
75847;SDS011;65750;47.540;19.090;2023-02-19T03:35:39;2.42;;;1.20;;
75847;SDS011;65750;47.540;19.090;2023-02-19T03:38:09;2.22;;;1.20;;
75847;SDS011;65750;47.540;19.090;2023-02-19T03:40:44;2.03;;;1.08;;
75847;SDS011;65750;47.540;19.090;2023-02-19T03:43:18;2.35;;;1.15;;
75847;SDS011;65750;47.540;19.090;2023-02-19T03:45:52;1.80;;;1.07;;
75847;SDS011;65750;47.540;19.090;2023-02-19T03:48:24;3.42;;;1.25;;
75847;SDS011;65750;47.540;19.090;2023-02-19T03:51:03;3.00;;;1.35;;
75847;SDS011;65750;47.540;19.090;2023-02-19T03:53:50;2.50;;;1.15;;
75847;SDS011;65750;47.540;19.090;2023-02-19T03:56:21;1.90;;;1.10;;
75847;SDS011;65750;47.540;19.090;2023-02-19T03:58:53;3.10;;;1.50;;
75847;SDS011;65750;47.540;19.090;2023-02-19T04:01:23;2.47;;;1.25;;
75847;SDS011;65750;47.540;19.090;2023-02-19T04:03:55;2.55;;;1.40;;
75847;SDS011;65750;47.540;19.090;2023-02-19T04:06:27;2.42;;;1.40;;
75847;SDS011;65750;47.540;19.090;2023-02-19T04:08:57;2.28;;;1.20;;
75847;SDS011;65750;47.540;19.090;2023-02-19T04:11:27;2.10;;;1.10;;
75847;SDS011;65750;47.540;19.090;2023-02-19T04:13:57;2.20;;;1.10;;
75847;SDS011;65750;47.540;19.090;2023-02-19T04:16:28;2.33;;;1.23;;
75847;SDS011;65750;47.540;19.090;2023-02-19T04:18:56;2.20;;;1.20;;
75847;SDS011;65750;47.540;19.090;2023-02-19T04:21:27;2.10;;;1.23;;
75847;SDS011;65750;47.540;19.090;2023-02-19T04:23:54;2.17;;;1.20;;
75847;SDS011;65750;47.540;19.090;2023-02-19T04:26:23;2.17;;;1.10;;
75847;SDS011;65750;47.540;19.090;2023-02-19T04:28:51;2.30;;;1.10;;
75847;SDS011;65750;47.540;19.090;2023-02-19T04:31:19;1.90;;;0.98;;
75847;SDS011;65750;47.540;19.090;2023-02-19T04:33:46;1.92;;;1.00;;
75847;SDS011;65750;47.540;19.090;2023-02-19T04:36:14;2.30;;;1.10;;
75847;SDS011;65750;47.540;19.090;2023-02-19T04:38:42;2.22;;;1.10;;
75847;SDS011;65750;47.540;19.090;2023-02-19T04:41:09;2.28;;;1.17;;
75847;SDS011;65750;47.540;19.090;2023-02-19T04:43:36;1.90;;;1.10;;
75847;SDS011;65750;47.540;19.090;2023-02-19T04:46:03;2.25;;;1.12;;
75847;SDS011;65750;47.540;19.090;2023-02-19T04:48:31;1.90;;;0.90;;
75847;SDS011;65750;47.540;19.090;2023-02-19T04:50:58;1.95;;;0.98;;
75847;SDS011;65750;47.540;19.090;2023-02-19T04:53:25;2.15;;;1.30;;
75847;SDS011;65750;47.540;19.090;2023-02-19T04:55:53;2.20;;;1.10;;
75847;SDS011;65750;47.540;19.090;2023-02-19T04:58:21;2.37;;;1.10;;
75847;SDS011;65750;47.540;19.090;2023-02-19T05:00:50;1.80;;;0.93;;
75847;SDS011;65750;47.540;19.090;2023-02-19T05:03:17;1.90;;;0.90;;
75847;SDS011;65750;47.540;19.090;2023-02-19T05:05:45;2.45;;;1.20;;
75847;SDS011;65750;47.540;19.090;2023-02-19T05:08:12;2.92;;;1.10;;
75847;SDS011;65750;47.540;19.090;2023-02-19T05:10:39;1.80;;;1.00;;
75847;SDS011;65750;47.540;19.090;2023-02-19T05:13:07;2.33;;;0.80;;
75847;SDS011;65750;47.540;19.090;2023-02-19T05:15:35;2.15;;;1.10;;
75847;SDS011;65750;47.540;19.090;2023-02-19T05:18:03;1.85;;;1.08;;
75847;SDS011;65750;47.540;19.090;2023-02-19T05:20:30;1.70;;;0.98;;
75847;SDS011;65750;47.540;19.090;2023-02-19T05:22:57;2.10;;;1.23;;
75847;SDS011;65750;47.540;19.090;2023-02-19T05:25:24;2.47;;;1.03;;
75847;SDS011;65750;47.540;19.090;2023-02-19T05:27:52;1.60;;;0.77;;
75847;SDS011;65750;47.540;19.090;2023-02-19T05:30:40;2.17;;;1.10;;
75847;SDS011;65750;47.540;19.090;2023-02-19T05:33:08;1.80;;;0.95;;
75847;SDS011;65750;47.540;19.090;2023-02-19T05:35:38;1.77;;;0.90;;
75847;SDS011;65750;47.540;19.090;2023-02-19T05:38:06;3.07;;;1.00;;
75847;SDS011;65750;47.540;19.090;2023-02-19T05:40:34;2.15;;;1.02;;
75847;SDS011;65750;47.540;19.090;2023-02-19T05:43:01;1.95;;;0.98;;
75847;SDS011;65750;47.540;19.090;2023-02-19T05:45:28;2.20;;;1.17;;
75847;SDS011;65750;47.540;19.090;2023-02-19T05:47:57;1.80;;;0.95;;
75847;SDS011;65750;47.540;19.090;2023-02-19T05:50:24;1.90;;;0.87;;
75847;SDS011;65750;47.540;19.090;2023-02-19T05:52:51;1.80;;;1.00;;
75847;SDS011;65750;47.540;19.090;2023-02-19T05:55:19;1.70;;;1.00;;
75847;SDS011;65750;47.540;19.090;2023-02-19T05:57:46;2.37;;;0.85;;
75847;SDS011;65750;47.540;19.090;2023-02-19T06:00:15;1.85;;;1.08;;
75847;SDS011;65750;47.540;19.090;2023-02-19T06:02:43;1.53;;;0.73;;
75847;SDS011;65750;47.540;19.090;2023-02-19T06:05:12;2.25;;;1.00;;
75847;SDS011;65750;47.540;19.090;2023-02-19T06:07:39;2.33;;;1.00;;
75847;SDS011;65750;47.540;19.090;2023-02-19T06:10:07;2.05;;;1.00;;
75847;SDS011;65750;47.540;19.090;2023-02-19T06:12:35;1.98;;;0.90;;
75847;SDS011;65750;47.540;19.090;2023-02-19T06:15:02;1.90;;;0.90;;
75847;SDS011;65750;47.540;19.090;2023-02-19T06:17:30;2.50;;;0.80;;
75847;SDS011;65750;47.540;19.090;2023-02-19T06:19:57;2.50;;;1.20;;
75847;SDS011;65750;47.540;19.090;2023-02-19T06:22:26;1.90;;;1.00;;
75847;SDS011;65750;47.540;19.090;2023-02-19T06:24:53;2.03;;;1.00;;
75847;SDS011;65750;47.540;19.090;2023-02-19T06:27:21;1.90;;;1.07;;
75847;SDS011;65750;47.540;19.090;2023-02-19T06:29:48;1.60;;;0.90;;
75847;SDS011;65750;47.540;19.090;2023-02-19T06:32:15;2.05;;;0.90;;
75847;SDS011;65750;47.540;19.090;2023-02-19T06:34:42;1.95;;;1.00;;
75847;SDS011;65750;47.540;19.090;2023-02-19T06:37:09;2.15;;;1.15;;
75847;SDS011;65750;47.540;19.090;2023-02-19T06:39:38;2.00;;;0.90;;
75847;SDS011;65750;47.540;19.090;2023-02-19T06:42:05;1.83;;;0.90;;
75847;SDS011;65750;47.540;19.090;2023-02-19T06:44:32;1.90;;;1.00;;
75847;SDS011;65750;47.540;19.090;2023-02-19T06:46:59;1.92;;;0.93;;
75847;SDS011;65750;47.540;19.090;2023-02-19T06:49:27;1.75;;;0.93;;
75847;SDS011;65750;47.540;19.090;2023-02-19T06:51:54;1.80;;;1.00;;
75847;SDS011;65750;47.540;19.090;2023-02-19T06:54:21;2.62;;;1.10;;
75847;SDS011;65750;47.540;19.090;2023-02-19T06:56:51;1.80;;;1.00;;
75847;SDS011;65750;47.540;19.090;2023-02-19T06:59:18;2.10;;;1.10;;
75847;SDS011;65750;47.540;19.090;2023-02-19T07:01:46;1.80;;;1.08;;
75847;SDS011;65750;47.540;19.090;2023-02-19T07:04:13;2.00;;;1.00;;
75847;SDS011;65750;47.540;19.090;2023-02-19T07:06:40;2.00;;;0.80;;
75847;SDS011;65750;47.540;19.090;2023-02-19T07:09:07;2.35;;;1.10;;
75847;SDS011;65750;47.540;19.090;2023-02-19T07:11:35;1.85;;;0.95;;
75847;SDS011;65750;47.540;19.090;2023-02-19T07:14:05;2.12;;;1.10;;
75847;SDS011;65750;47.540;19.090;2023-02-19T07:16:34;1.90;;;1.00;;
75847;SDS011;65750;47.540;19.090;2023-02-19T07:19:01;1.85;;;1.10;;
75847;SDS011;65750;47.540;19.090;2023-02-19T07:21:29;1.80;;;0.80;;
75847;SDS011;65750;47.540;19.090;2023-02-19T07:23:57;1.98;;;0.93;;
75847;SDS011;65750;47.540;19.090;2023-02-19T07:26:24;2.15;;;1.08;;
75847;SDS011;65750;47.540;19.090;2023-02-19T07:28:51;2.00;;;1.00;;
75847;SDS011;65750;47.540;19.090;2023-02-19T07:31:21;2.00;;;0.90;;
75847;SDS011;65750;47.540;19.090;2023-02-19T07:33:49;2.55;;;0.98;;
75847;SDS011;65750;47.540;19.090;2023-02-19T07:36:16;2.85;;;1.30;;
75847;SDS011;65750;47.540;19.090;2023-02-19T07:38:44;4.53;;;1.05;;
75847;SDS011;65750;47.540;19.090;2023-02-19T07:41:11;2.40;;;1.00;;
75847;SDS011;65750;47.540;19.090;2023-02-19T07:43:39;2.12;;;1.00;;
75847;SDS011;65750;47.540;19.090;2023-02-19T07:46:07;2.95;;;1.30;;
75847;SDS011;65750;47.540;19.090;2023-02-19T07:48:37;4.15;;;1.40;;
75847;SDS011;65750;47.540;19.090;2023-02-19T07:51:06;3.50;;;1.48;;
75847;SDS011;65750;47.540;19.090;2023-02-19T07:53:36;2.57;;;1.43;;
75847;SDS011;65750;47.540;19.090;2023-02-19T07:56:03;4.03;;;1.90;;
75847;SDS011;65750;47.540;19.090;2023-02-19T07:58:32;5.03;;;1.80;;
75847;SDS011;65750;47.540;19.090;2023-02-19T08:01:05;4.25;;;1.70;;
75847;SDS011;65750;47.540;19.090;2023-02-19T08:03:34;5.62;;;1.70;;
75847;SDS011;65750;47.540;19.090;2023-02-19T08:06:02;9.77;;;1.80;;
75847;SDS011;65750;47.540;19.090;2023-02-19T08:08:29;3.62;;;1.73;;
75847;SDS011;65750;47.540;19.090;2023-02-19T08:10:58;6.70;;;1.58;;
75847;SDS011;65750;47.540;19.090;2023-02-19T08:13:43;6.40;;;1.50;;
75847;SDS011;65750;47.540;19.090;2023-02-19T08:16:11;6.00;;;1.75;;
75847;SDS011;65750;47.540;19.090;2023-02-19T08:18:40;9.37;;;1.70;;
75847;SDS011;65750;47.540;19.090;2023-02-19T08:21:09;5.20;;;1.90;;
75847;SDS011;65750;47.540;19.090;2023-02-19T08:23:37;6.45;;;2.10;;
75847;SDS011;65750;47.540;19.090;2023-02-19T08:26:04;8.57;;;1.83;;
75847;SDS011;65750;47.540;19.090;2023-02-19T08:28:31;13.15;;;1.85;;
75847;SDS011;65750;47.540;19.090;2023-02-19T08:30:59;9.03;;;2.20;;
75847;SDS011;65750;47.540;19.090;2023-02-19T08:33:28;9.85;;;2.30;;
75847;SDS011;65750;47.540;19.090;2023-02-19T08:35:56;16.30;;;2.78;;
75847;SDS011;65750;47.540;19.090;2023-02-19T08:38:30;6.47;;;2.12;;
75847;SDS011;65750;47.540;19.090;2023-02-19T08:40:59;5.43;;;1.98;;
75847;SDS011;65750;47.540;19.090;2023-02-19T08:43:26;6.93;;;2.00;;
75847;SDS011;65750;47.540;19.090;2023-02-19T08:45:53;8.25;;;2.37;;
75847;SDS011;65750;47.540;19.090;2023-02-19T08:48:21;9.73;;;2.30;;
75847;SDS011;65750;47.540;19.090;2023-02-19T08:50:54;5.87;;;2.30;;
75847;SDS011;65750;47.540;19.090;2023-02-19T08:53:22;5.75;;;2.00;;
75847;SDS011;65750;47.540;19.090;2023-02-19T08:55:51;5.63;;;2.10;;
75847;SDS011;65750;47.540;19.090;2023-02-19T08:58:18;4.68;;;2.00;;
75847;SDS011;65750;47.540;19.090;2023-02-19T09:00:46;5.90;;;2.47;;
75847;SDS011;65750;47.540;19.090;2023-02-19T09:03:13;3.75;;;1.85;;
75847;SDS011;65750;47.540;19.090;2023-02-19T09:05:40;5.22;;;2.30;;
75847;SDS011;65750;47.540;19.090;2023-02-19T09:08:08;5.53;;;1.87;;
75847;SDS011;65750;47.540;19.090;2023-02-19T09:10:35;5.60;;;2.03;;
75847;SDS011;65750;47.540;19.090;2023-02-19T09:13:03;8.27;;;2.12;;
75847;SDS011;65750;47.540;19.090;2023-02-19T09:15:31;9.60;;;2.10;;
75847;SDS011;65750;47.540;19.090;2023-02-19T09:17:58;7.37;;;2.42;;
75847;SDS011;65750;47.540;19.090;2023-02-19T09:20:25;11.07;;;2.53;;
75847;SDS011;65750;47.540;19.090;2023-02-19T09:22:55;8.15;;;2.20;;
75847;SDS011;65750;47.540;19.090;2023-02-19T09:25:23;8.68;;;2.15;;
75847;SDS011;65750;47.540;19.090;2023-02-19T09:27:52;9.15;;;2.42;;
75847;SDS011;65750;47.540;19.090;2023-02-19T09:30:22;8.10;;;2.50;;
75847;SDS011;65750;47.540;19.090;2023-02-19T09:32:49;5.90;;;2.20;;
75847;SDS011;65750;47.540;19.090;2023-02-19T09:35:16;4.37;;;2.50;;
75847;SDS011;65750;47.540;19.090;2023-02-19T09:37:44;5.15;;;2.10;;
75847;SDS011;65750;47.540;19.090;2023-02-19T09:40:11;4.30;;;2.05;;
75847;SDS011;65750;47.540;19.090;2023-02-19T09:42:39;8.40;;;2.40;;
75847;SDS011;65750;47.540;19.090;2023-02-19T09:45:09;7.03;;;2.20;;
75847;SDS011;65750;47.540;19.090;2023-02-19T09:47:44;8.48;;;2.10;;
75847;SDS011;65750;47.540;19.090;2023-02-19T09:50:13;5.68;;;2.30;;
75847;SDS011;65750;47.540;19.090;2023-02-19T09:52:43;5.80;;;2.20;;
75847;SDS011;65750;47.540;19.090;2023-02-19T09:55:14;7.70;;;2.25;;
75847;SDS011;65750;47.540;19.090;2023-02-19T09:57:43;6.90;;;2.37;;
75847;SDS011;65750;47.540;19.090;2023-02-19T10:43:54;7.60;;;3.03;;
75847;SDS011;65750;47.540;19.090;2023-02-19T10:46:24;6.87;;;2.70;;
75847;SDS011;65750;47.540;19.090;2023-02-19T10:48:53;6.05;;;3.03;;
75847;SDS011;65750;47.540;19.090;2023-02-19T10:51:28;8.30;;;3.05;;
75847;SDS011;65750;47.540;19.090;2023-02-19T10:54:17;8.38;;;3.25;;
75847;SDS011;65750;47.540;19.090;2023-02-19T10:56:46;8.50;;;3.20;;
75847;SDS011;65750;47.540;19.090;2023-02-19T10:59:20;7.10;;;2.97;;
75847;SDS011;65750;47.540;19.090;2023-02-19T11:01:52;5.70;;;2.80;;
75847;SDS011;65750;47.540;19.090;2023-02-19T11:04:21;5.60;;;2.85;;
75847;SDS011;65750;47.540;19.090;2023-02-19T11:06:48;9.25;;;3.42;;
75847;SDS011;65750;47.540;19.090;2023-02-19T11:09:21;6.82;;;3.12;;
75847;SDS011;65750;47.540;19.090;2023-02-19T11:11:52;5.53;;;3.00;;
75847;SDS011;65750;47.540;19.090;2023-02-19T11:14:22;5.50;;;2.97;;
75847;SDS011;65750;47.540;19.090;2023-02-19T11:16:50;10.52;;;3.15;;
75847;SDS011;65750;47.540;19.090;2023-02-19T11:19:21;6.57;;;2.60;;
75847;SDS011;65750;47.540;19.090;2023-02-19T11:21:51;5.12;;;2.70;;
75847;SDS011;65750;47.540;19.090;2023-02-19T11:24:30;9.27;;;2.90;;
75847;SDS011;65750;47.540;19.090;2023-02-19T11:27:00;7.28;;;2.53;;
75847;SDS011;65750;47.540;19.090;2023-02-19T11:29:31;9.55;;;2.55;;
75847;SDS011;65750;47.540;19.090;2023-02-19T11:32:16;10.13;;;3.25;;
75847;SDS011;65750;47.540;19.090;2023-02-19T11:34:50;8.43;;;3.78;;
75847;SDS011;65750;47.540;19.090;2023-02-19T11:37:18;24.10;;;3.90;;
75847;SDS011;65750;47.540;19.090;2023-02-19T11:39:47;16.42;;;3.70;;
75847;SDS011;65750;47.540;19.090;2023-02-19T11:45:14;17.87;;;3.45;;
75847;SDS011;65750;47.540;19.090;2023-02-19T11:48:01;21.27;;;4.12;;
75847;SDS011;65750;47.540;19.090;2023-02-19T11:50:41;16.03;;;3.40;;
75847;SDS011;65750;47.540;19.090;2023-02-19T11:53:15;18.50;;;6.62;;
75847;SDS011;65750;47.540;19.090;2023-02-19T11:55:50;25.85;;;17.35;;
75847;SDS011;65750;47.540;19.090;2023-02-19T11:58:33;22.62;;;13.00;;
75847;SDS011;65750;47.540;19.090;2023-02-19T12:01:14;21.33;;;13.18;;
75847;SDS011;65750;47.540;19.090;2023-02-19T12:03:54;21.53;;;11.70;;
75847;SDS011;65750;47.540;19.090;2023-02-19T12:06:41;19.67;;;11.07;;
75847;SDS011;65750;47.540;19.090;2023-02-19T12:09:16;15.77;;;10.00;;
75847;SDS011;65750;47.540;19.090;2023-02-19T12:12:03;15.45;;;10.23;;
75847;SDS011;65750;47.540;19.090;2023-02-19T12:17:59;15.43;;;9.40;;
75847;SDS011;65750;47.540;19.090;2023-02-19T12:20:38;10.82;;;8.60;;
75847;SDS011;65750;47.540;19.090;2023-02-19T12:23:20;12.20;;;8.82;;
75847;SDS011;65750;47.540;19.090;2023-02-19T12:26:21;14.30;;;8.48;;
75847;SDS011;65750;47.540;19.090;2023-02-19T12:29:01;11.25;;;7.97;;
75847;SDS011;65750;47.540;19.090;2023-02-19T12:31:39;13.10;;;7.50;;
75847;SDS011;65750;47.540;19.090;2023-02-19T12:34:21;13.00;;;7.95;;
75847;SDS011;65750;47.540;19.090;2023-02-19T12:36:59;8.73;;;7.20;;
75847;SDS011;65750;47.540;19.090;2023-02-19T12:39:38;13.62;;;6.90;;
75847;SDS011;65750;47.540;19.090;2023-02-19T12:42:14;11.68;;;7.37;;
75847;SDS011;65750;47.540;19.090;2023-02-19T12:44:54;10.67;;;6.50;;
75847;SDS011;65750;47.540;19.090;2023-02-19T12:47:30;11.07;;;7.30;;
75847;SDS011;65750;47.540;19.090;2023-02-19T12:50:02;13.20;;;7.00;;
75847;SDS011;65750;47.540;19.090;2023-02-19T12:52:35;14.25;;;8.00;;
75847;SDS011;65750;47.540;19.090;2023-02-19T12:55:09;29.33;;;10.98;;
75847;SDS011;65750;47.540;19.090;2023-02-19T12:57:44;28.43;;;10.07;;
75847;SDS011;65750;47.540;19.090;2023-02-19T13:00:16;31.52;;;10.10;;
75847;SDS011;65750;47.540;19.090;2023-02-19T13:02:52;30.40;;;9.30;;
75847;SDS011;65750;47.540;19.090;2023-02-19T13:05:28;31.90;;;10.02;;
75847;SDS011;65750;47.540;19.090;2023-02-19T13:08:05;23.35;;;8.77;;
75847;SDS011;65750;47.540;19.090;2023-02-19T13:10:37;28.87;;;8.40;;
75847;SDS011;65750;47.540;19.090;2023-02-19T13:13:09;23.83;;;8.82;;
75847;SDS011;65750;47.540;19.090;2023-02-19T13:15:40;22.65;;;8.02;;
75847;SDS011;65750;47.540;19.090;2023-02-19T13:18:11;20.73;;;7.95;;
75847;SDS011;65750;47.540;19.090;2023-02-19T13:20:42;21.90;;;7.87;;
75847;SDS011;65750;47.540;19.090;2023-02-19T13:23:12;14.37;;;6.97;;
75847;SDS011;65750;47.540;19.090;2023-02-19T13:26:10;16.37;;;6.00;;
75847;SDS011;65750;47.540;19.090;2023-02-19T13:29:02;16.42;;;6.57;;
75847;SDS011;65750;47.540;19.090;2023-02-19T13:31:43;16.15;;;6.00;;
75847;SDS011;65750;47.540;19.090;2023-02-19T13:34:19;17.27;;;6.15;;
75847;SDS011;65750;47.540;19.090;2023-02-19T13:36:56;19.00;;;5.80;;
75847;SDS011;65750;47.540;19.090;2023-02-19T13:39:26;23.75;;;6.68;;
75847;SDS011;65750;47.540;19.090;2023-02-19T13:41:54;15.25;;;5.43;;
75847;SDS011;65750;47.540;19.090;2023-02-19T13:44:23;17.50;;;5.70;;
75847;SDS011;65750;47.540;19.090;2023-02-19T13:46:55;19.85;;;5.22;;
75847;SDS011;65750;47.540;19.090;2023-02-19T14:01:16;12.37;;;4.10;;
75847;SDS011;65750;47.540;19.090;2023-02-19T14:03:46;9.93;;;3.80;;
75847;SDS011;65750;47.540;19.090;2023-02-19T14:06:16;10.80;;;4.22;;
75847;SDS011;65750;47.540;19.090;2023-02-19T14:08:49;9.77;;;3.92;;
75847;SDS011;65750;47.540;19.090;2023-02-19T14:14:38;10.02;;;3.95;;
75847;SDS011;65750;47.540;19.090;2023-02-19T14:17:23;7.67;;;3.53;;
75847;SDS011;65750;47.540;19.090;2023-02-19T14:19:53;9.23;;;3.75;;
75847;SDS011;65750;47.540;19.090;2023-02-19T14:25:28;8.25;;;3.35;;
75847;SDS011;65750;47.540;19.090;2023-02-19T14:28:10;7.22;;;2.95;;
75847;SDS011;65750;47.540;19.090;2023-02-19T14:30:42;7.20;;;2.70;;
75847;SDS011;65750;47.540;19.090;2023-02-19T14:33:14;5.57;;;2.30;;
75847;SDS011;65750;47.540;19.090;2023-02-19T14:35:44;6.70;;;2.10;;
75847;SDS011;65750;47.540;19.090;2023-02-19T14:38:14;7.28;;;2.42;;
75847;SDS011;65750;47.540;19.090;2023-02-19T14:40:47;5.20;;;2.08;;
75847;SDS011;65750;47.540;19.090;2023-02-19T14:43:18;4.93;;;2.13;;
75847;SDS011;65750;47.540;19.090;2023-02-19T14:45:48;3.67;;;1.85;;
75847;SDS011;65750;47.540;19.090;2023-02-19T14:48:19;5.10;;;2.15;;
75847;SDS011;65750;47.540;19.090;2023-02-19T14:50:50;4.20;;;1.58;;
75847;SDS011;65750;47.540;19.090;2023-02-19T14:53:20;4.57;;;1.60;;
75847;SDS011;65750;47.540;19.090;2023-02-19T14:55:54;4.10;;;1.10;;
75847;SDS011;65750;47.540;19.090;2023-02-19T14:58:24;7.37;;;1.25;;
75847;SDS011;65750;47.540;19.090;2023-02-19T15:00:59;25.40;;;2.17;;
75847;SDS011;65750;47.540;19.090;2023-02-19T15:03:31;47.90;;;3.12;;
75847;SDS011;65750;47.540;19.090;2023-02-19T15:06:02;52.62;;;3.22;;
75847;SDS011;65750;47.540;19.090;2023-02-19T15:08:35;59.57;;;4.80;;
75847;SDS011;65750;47.540;19.090;2023-02-19T15:11:08;61.17;;;5.20;;
75847;SDS011;65750;47.540;19.090;2023-02-19T15:13:38;54.45;;;4.55;;
75847;SDS011;65750;47.540;19.090;2023-02-19T15:16:16;55.10;;;4.87;;
75847;SDS011;65750;47.540;19.090;2023-02-19T15:18:47;45.35;;;3.90;;
75847;SDS011;65750;47.540;19.090;2023-02-19T15:21:20;43.77;;;3.80;;
75847;SDS011;65750;47.540;19.090;2023-02-19T15:23:50;39.45;;;3.92;;
75847;SDS011;65750;47.540;19.090;2023-02-19T15:26:26;47.40;;;4.47;;
75847;SDS011;65750;47.540;19.090;2023-02-19T15:28:58;37.38;;;4.07;;
75847;SDS011;65750;47.540;19.090;2023-02-19T15:31:27;40.45;;;3.95;;
75847;SDS011;65750;47.540;19.090;2023-02-19T15:33:55;45.73;;;3.93;;
75847;SDS011;65750;47.540;19.090;2023-02-19T15:36:26;39.13;;;3.35;;
75847;SDS011;65750;47.540;19.090;2023-02-19T15:38:56;30.73;;;3.28;;
75847;SDS011;65750;47.540;19.090;2023-02-19T15:41:28;33.97;;;3.12;;
75847;SDS011;65750;47.540;19.090;2023-02-19T15:44:02;24.90;;;2.80;;
75847;SDS011;65750;47.540;19.090;2023-02-19T15:46:36;23.13;;;2.60;;
75847;SDS011;65750;47.540;19.090;2023-02-19T15:49:06;28.77;;;3.00;;
75847;SDS011;65750;47.540;19.090;2023-02-19T15:51:40;16.58;;;2.33;;
75847;SDS011;65750;47.540;19.090;2023-02-19T15:54:14;19.37;;;2.40;;
75847;SDS011;65750;47.540;19.090;2023-02-19T15:56:48;21.20;;;2.80;;
75847;SDS011;65750;47.540;19.090;2023-02-19T15:59:18;23.73;;;2.47;;
75847;SDS011;65750;47.540;19.090;2023-02-19T16:01:50;21.02;;;3.10;;
75847;SDS011;65750;47.540;19.090;2023-02-19T16:04:19;19.15;;;2.58;;